createdAt,value
2019-03-01T00:01:56.048Z,11.20
2019-03-01T00:06:16.865Z,13.13
2019-03-01T00:11:26.770Z,11.97
2019-03-01T00:16:06.814Z,12.97
2019-03-01T00:20:37.069Z,13.00
2019-03-01T00:24:58.568Z,13.20
2019-03-01T00:29:48.651Z,13.63
2019-03-01T00:34:04.562Z,10.60
2019-03-01T00:38:34.158Z,14.67
2019-03-01T00:43:28.693Z,12.70
2019-03-01T00:47:33.233Z,14.90
2019-03-01T00:51:37.464Z,12.10
2019-03-01T00:55:41.699Z,12.80
2019-03-01T00:59:45.892Z,11.70
2019-03-01T01:03:50.449Z,13.73
2019-03-01T01:07:54.642Z,13.67
2019-03-01T01:11:58.935Z,13.83
2019-03-01T01:16:03.174Z,15.30
2019-03-01T01:20:08.205Z,14.37
2019-03-01T01:24:12.403Z,12.10
2019-03-01T01:28:16.577Z,13.10
2019-03-01T01:32:20.983Z,15.23
2019-03-01T01:36:25.198Z,11.67
2019-03-01T01:40:29.620Z,12.57
2019-03-01T01:44:33.879Z,13.23
2019-03-01T01:48:38.109Z,13.53
2019-03-01T01:52:42.311Z,15.00
2019-03-01T01:56:46.542Z,12.40
2019-03-01T02:00:51.134Z,15.60
2019-03-01T02:04:55.464Z,14.93
2019-03-01T02:08:59.624Z,16.27
2019-03-01T02:13:03.866Z,16.80
2019-03-01T02:17:08.043Z,14.70
2019-03-01T02:21:12.390Z,14.77
2019-03-01T02:25:16.621Z,16.50
2019-03-01T02:29:20.840Z,13.93
2019-03-01T02:33:25.031Z,13.30
2019-03-01T02:37:29.254Z,14.57
2019-03-01T02:41:33.479Z,13.13
2019-03-01T02:45:37.797Z,12.47
2019-03-01T02:49:42.030Z,14.93
2019-03-01T02:53:46.575Z,17.10
2019-03-01T02:57:50.807Z,14.83
2019-03-01T03:01:55.075Z,17.63
2019-03-01T03:06:17.122Z,14.00
2019-03-01T03:10:21.580Z,14.47
2019-03-01T03:14:25.803Z,12.73
2019-03-01T03:18:30.130Z,15.40
2019-03-01T03:22:34.387Z,14.47
2019-03-01T03:26:39.018Z,13.70
2019-03-01T03:30:43.206Z,11.67
2019-03-01T03:34:47.427Z,13.97
2019-03-01T03:38:51.665Z,8.63
2019-03-01T03:42:55.862Z,8.37
2019-03-01T03:47:00.071Z,8.83
2019-03-01T03:51:04.342Z,9.77
2019-03-01T03:55:10.062Z,9.37
2019-03-01T03:59:14.389Z,8.20
2019-03-01T04:03:18.975Z,8.83
2019-03-01T04:07:23.190Z,9.40
2019-03-01T04:11:27.413Z,7.40
2019-03-01T04:15:31.626Z,8.63
2019-03-01T04:19:35.908Z,9.93
2019-03-01T04:23:40.145Z,8.83
2019-03-01T04:27:44.621Z,10.03
2019-03-01T04:31:48.891Z,7.67
2019-03-01T04:35:53.169Z,10.97
2019-03-01T04:39:57.464Z,8.57
2019-03-01T04:44:01.710Z,11.70
2019-03-01T04:48:05.910Z,8.97
2019-03-01T04:52:31.906Z,10.40
2019-03-01T04:56:36.183Z,8.43
2019-03-01T05:00:40.407Z,9.43
2019-03-01T05:04:44.611Z,7.03
2019-03-01T05:08:48.802Z,11.70
2019-03-01T05:12:53.096Z,8.00
2019-03-01T05:16:57.352Z,10.57
2019-03-01T05:21:01.526Z,6.90
2019-03-01T05:25:06.210Z,8.90
2019-03-01T05:29:10.762Z,9.07
2019-03-01T05:33:14.965Z,7.23
2019-03-01T05:37:19.189Z,8.13
2019-03-01T05:41:23.431Z,4.83
2019-03-01T05:45:27.666Z,10.37
2019-03-01T05:49:31.861Z,10.33
2019-03-01T05:53:36.094Z,10.33
2019-03-01T05:58:17.028Z,12.10
2019-03-01T06:02:35.911Z,8.97
2019-03-01T06:07:16.765Z,9.67
2019-03-01T06:11:49.002Z,8.20
2019-03-01T06:16:18.662Z,9.67
2019-03-01T06:21:06.716Z,8.57
2019-03-01T06:25:49.072Z,8.30
2019-03-01T06:30:01.667Z,9.20
2019-03-01T06:34:38.542Z,8.07
2019-03-01T06:39:48.492Z,9.03
2019-03-01T06:44:46.229Z,7.67
2019-03-01T06:48:54.983Z,6.20
2019-03-01T06:52:59.213Z,7.20
2019-03-01T06:57:03.446Z,6.57
2019-03-01T07:01:11.722Z,5.93
2019-03-01T07:05:15.940Z,4.90
2019-03-01T07:09:20.135Z,3.87
2019-03-01T07:13:24.391Z,6.33
2019-03-01T07:17:28.931Z,3.80
2019-03-01T07:21:33.125Z,3.43
2019-03-01T07:25:37.339Z,6.37
2019-03-01T07:29:41.550Z,3.23
2019-03-01T07:33:45.751Z,4.07
2019-03-01T07:37:50.003Z,3.77
2019-03-01T07:41:54.217Z,3.83
2019-03-01T07:45:58.503Z,5.60
2019-03-01T07:50:02.701Z,5.37
2019-03-01T07:54:06.927Z,5.93
2019-03-01T07:58:11.145Z,3.53
2019-03-01T08:02:15.368Z,3.13
2019-03-01T08:06:19.540Z,2.07
2019-03-01T08:10:23.787Z,2.87
2019-03-01T08:14:31.283Z,3.83
2019-03-01T08:18:33.965Z,3.07
2019-03-01T08:22:48.086Z,2.47
2019-03-01T08:26:44.173Z,5.03
2019-03-01T08:30:48.366Z,6.13
2019-03-01T08:34:53.680Z,3.80
2019-03-01T08:39:00.997Z,5.20
2019-03-01T08:43:04.495Z,3.70
2019-03-01T08:47:08.951Z,3.87
2019-03-01T08:51:13.179Z,3.80
2019-03-01T08:55:18.520Z,5.10
2019-03-01T08:59:22.710Z,2.60
2019-03-01T09:03:34.042Z,5.33
2019-03-01T09:07:38.234Z,6.40
2019-03-01T09:11:44.740Z,5.83
2019-03-01T09:15:49.461Z,4.60
2019-03-01T09:19:57.191Z,3.93
2019-03-01T09:24:00.542Z,4.83
2019-03-01T09:28:05.418Z,2.10
2019-03-01T09:32:09.647Z,2.30
2019-03-01T09:36:21.469Z,2.57
2019-03-01T09:40:28.848Z,2.10
2019-03-01T09:44:34.617Z,2.27
2019-03-01T09:48:37.653Z,1.40
2019-03-01T09:52:41.880Z,1.33
2019-03-01T09:56:46.112Z,1.13
2019-03-01T10:00:56.621Z,1.37
2019-03-01T10:05:00.623Z,2.20
2019-03-01T10:09:10.664Z,5.17
2019-03-01T10:13:14.887Z,1.73
2019-03-01T10:17:19.341Z,1.37
2019-03-01T10:21:23.762Z,1.20
2019-03-01T10:25:27.943Z,2.17
2019-03-01T10:29:32.152Z,4.00
2019-03-01T10:33:36.452Z,1.60
2019-03-01T10:37:40.777Z,1.17
2019-03-01T10:41:45.127Z,1.17
2019-03-01T10:45:49.673Z,1.40
2019-03-01T10:49:53.860Z,1.50
2019-03-01T10:53:58.067Z,1.13
2019-03-01T10:58:02.248Z,1.77
2019-03-01T11:02:06.535Z,1.07
2019-03-01T11:06:11.043Z,2.50
2019-03-01T11:10:17.588Z,0.73
2019-03-01T11:14:21.816Z,1.07
2019-03-01T11:18:26.026Z,0.70
2019-03-01T11:22:30.242Z,1.07
2019-03-01T11:26:34.469Z,1.50
2019-03-01T11:30:38.708Z,1.43
2019-03-01T11:34:42.982Z,0.73
2019-03-01T11:38:47.209Z,1.20
2019-03-01T11:42:51.428Z,1.13
2019-03-01T11:46:55.619Z,1.13
2019-03-01T11:50:59.905Z,1.00
2019-03-01T11:55:04.251Z,0.60
2019-03-01T11:59:08.484Z,1.03
2019-03-01T12:03:12.757Z,0.93
2019-03-01T12:07:16.943Z,1.43
2019-03-01T12:11:21.305Z,0.73
2019-03-01T12:15:25.493Z,1.17
2019-03-01T12:19:29.741Z,0.70
2019-03-01T12:23:33.972Z,0.93
2019-03-01T12:27:38.598Z,0.83
2019-03-01T12:31:42.904Z,0.60
2019-03-01T12:35:47.099Z,0.70
2019-03-01T12:39:52.126Z,0.93
2019-03-01T12:43:56.302Z,0.53
2019-03-01T12:48:00.549Z,0.70
2019-03-01T12:52:05.151Z,0.83
2019-03-01T12:56:09.331Z,1.47
2019-03-01T13:00:16.218Z,1.43
2019-03-01T13:04:20.408Z,1.00
2019-03-01T13:08:24.664Z,1.83
2019-03-01T13:12:28.865Z,2.43
2019-03-01T13:16:33.126Z,0.70
2019-03-01T13:20:38.161Z,2.27
2019-03-01T13:24:42.476Z,1.17
2019-03-01T13:28:47.251Z,1.17
2019-03-01T13:32:54.840Z,0.80
2019-03-01T13:36:58.490Z,0.80
2019-03-01T13:41:03.046Z,0.97
2019-03-01T13:45:08.398Z,1.13
2019-03-01T13:49:12.599Z,0.80
2019-03-01T13:53:16.865Z,0.67
2019-03-01T13:57:21.133Z,0.70
2019-03-01T14:01:27.067Z,1.17
2019-03-01T14:05:31.319Z,0.87
2019-03-01T14:09:35.505Z,0.90
2019-03-01T14:13:39.735Z,0.63
2019-03-01T14:17:44.024Z,0.60
2019-03-01T14:21:48.258Z,0.77
2019-03-01T14:25:54.549Z,1.53
2019-03-01T14:29:58.420Z,0.70
2019-03-01T14:34:02.652Z,0.93
2019-03-01T14:38:08.344Z,1.30
2019-03-01T14:42:12.603Z,0.60
2019-03-01T14:46:17.667Z,1.33
2019-03-01T14:50:23.681Z,0.53
2019-03-01T14:54:27.923Z,1.13
2019-03-01T14:58:36.278Z,0.60
2019-03-01T15:03:19.633Z,0.90
2019-03-01T15:07:23.870Z,0.50
2019-03-01T15:11:28.385Z,0.60
2019-03-01T15:15:32.937Z,0.70
2019-03-01T15:19:37.548Z,0.90
2019-03-01T15:23:41.782Z,1.17
2019-03-01T15:27:45.966Z,1.47
2019-03-01T15:31:51.091Z,0.73
2019-03-01T15:35:56.148Z,1.37
2019-03-01T15:40:00.521Z,1.03
2019-03-01T15:44:04.755Z,0.77
2019-03-01T15:48:08.990Z,0.90
2019-03-01T15:52:13.903Z,1.43
2019-03-01T15:56:18.870Z,0.67
2019-03-01T16:00:25.540Z,0.80
2019-03-01T16:04:30.405Z,1.00
2019-03-01T16:08:36.896Z,0.80
2019-03-01T16:12:40.927Z,1.07
2019-03-01T16:16:45.780Z,1.20
2019-03-01T16:20:51.642Z,1.10
2019-03-01T16:24:55.881Z,0.80
2019-03-01T16:29:00.127Z,1.13
2019-03-01T16:33:04.397Z,1.43
2019-03-01T16:37:08.598Z,1.07
2019-03-01T16:41:13.765Z,0.70
2019-03-01T16:45:21.111Z,1.90
2019-03-01T16:49:27.191Z,0.60
2019-03-01T16:53:30.228Z,1.53
2019-03-01T16:57:34.460Z,1.00
2019-03-01T17:01:40.641Z,0.83
2019-03-01T17:05:44.605Z,1.27
2019-03-01T17:09:51.358Z,1.43
2019-03-01T17:13:54.938Z,1.80
2019-03-01T17:17:59.151Z,1.00
2019-03-01T17:22:03.343Z,1.37
2019-03-01T17:26:07.595Z,1.30
2019-03-01T17:30:15.067Z,1.23
2019-03-01T17:34:21.843Z,1.70
2019-03-01T17:38:26.417Z,1.33
2019-03-01T17:42:30.644Z,1.00
2019-03-01T17:46:35.175Z,1.13
2019-03-01T17:50:41.722Z,1.57
2019-03-01T17:54:45.426Z,1.13
2019-03-01T17:58:49.663Z,0.87
2019-03-01T18:02:53.934Z,1.13
2019-03-01T18:06:58.197Z,1.10
2019-03-01T18:11:05.429Z,1.00
2019-03-01T18:15:12.355Z,0.60
2019-03-01T18:19:16.430Z,0.70
2019-03-01T18:23:20.660Z,0.60
2019-03-01T18:27:24.888Z,0.70
2019-03-01T18:31:34.545Z,1.03
2019-03-01T18:35:35.077Z,1.07
2019-03-01T18:39:41.129Z,1.50
2019-03-01T18:43:45.856Z,1.20
2019-03-01T18:47:51.620Z,0.80
2019-03-01T18:51:55.845Z,0.80
2019-03-01T18:56:00.074Z,1.27
2019-03-01T19:00:06.633Z,0.97
2019-03-01T19:04:12.990Z,1.67
2019-03-01T19:08:16.900Z,1.77
2019-03-01T19:12:21.084Z,2.33
2019-03-01T19:16:28.432Z,2.10
2019-03-01T19:20:31.617Z,2.70
2019-03-01T19:24:42.899Z,2.10
2019-03-01T19:28:41.844Z,2.30
2019-03-01T19:32:46.088Z,2.23
2019-03-01T19:36:50.518Z,2.23
2019-03-01T19:40:54.846Z,3.57
2019-03-01T19:45:00.796Z,2.67
2019-03-01T19:49:05.352Z,3.83
2019-03-01T19:53:09.585Z,3.47
2019-03-01T19:57:13.821Z,2.47
2019-03-01T20:01:18.598Z,2.33
2019-03-01T20:05:27.794Z,3.07
2019-03-01T20:09:30.452Z,2.40
2019-03-01T20:13:35.255Z,2.03
2019-03-01T20:17:44.440Z,1.77
2019-03-01T20:21:45.820Z,3.93
2019-03-01T20:25:51.049Z,2.23
2019-03-01T20:29:56.048Z,2.47
2019-03-01T20:34:01.898Z,2.43
2019-03-01T20:38:06.362Z,2.20
2019-03-01T20:42:10.807Z,1.90
2019-03-01T20:46:15.435Z,1.60
2019-03-01T20:50:19.642Z,2.07
2019-03-01T20:54:25.832Z,2.53
2019-03-01T20:58:29.848Z,1.53
2019-03-01T21:02:34.085Z,2.00
2019-03-01T21:06:40.562Z,1.93
2019-03-01T21:10:46.815Z,1.60
2019-03-01T21:14:50.557Z,1.73
2019-03-01T21:18:55.139Z,2.33
2019-03-01T21:22:59.333Z,2.50
2019-03-01T21:27:03.766Z,1.53
2019-03-01T21:31:08.178Z,1.60
2019-03-01T21:35:13.883Z,2.07
2019-03-01T21:39:20.646Z,1.97
2019-03-01T21:43:24.518Z,1.50
2019-03-01T21:47:29.406Z,1.70
2019-03-01T21:51:34.885Z,1.20
2019-03-01T21:55:39.176Z,1.60
2019-03-01T21:59:43.435Z,2.20
2019-03-01T22:03:47.636Z,2.37
2019-03-01T22:07:51.871Z,2.37
2019-03-01T22:11:56.069Z,2.50
2019-03-01T22:16:00.993Z,2.43
2019-03-01T22:20:08.990Z,4.27
2019-03-01T22:24:12.977Z,2.30
2019-03-01T22:28:17.275Z,1.77
2019-03-01T22:32:21.460Z,3.53
2019-03-01T22:36:25.724Z,2.17
2019-03-01T22:40:29.921Z,2.80
2019-03-01T22:44:36.534Z,4.07
2019-03-01T22:48:46.791Z,4.17
2019-03-01T22:52:46.064Z,4.70
2019-03-01T22:56:50.299Z,2.97
2019-03-01T23:01:24.864Z,4.80
2019-03-01T23:05:29.404Z,3.50
2019-03-01T23:09:33.622Z,4.77
2019-03-01T23:13:37.838Z,3.57
2019-03-01T23:17:42.089Z,3.93
2019-03-01T23:21:46.687Z,4.93
2019-03-01T23:25:50.932Z,5.57
2019-03-01T23:29:55.168Z,5.57
2019-03-01T23:33:59.483Z,5.10
2019-03-01T23:38:03.679Z,3.47
2019-03-01T23:42:07.964Z,3.23
2019-03-01T23:46:12.512Z,3.80
2019-03-01T23:50:16.847Z,2.37
2019-03-01T23:54:21.027Z,3.47
2019-03-01T23:58:25.608Z,2.90
